ADDS TAF Data INFO
IDs: Format: Raw Decoded Include METARs

Data at: 1510 UTC 19 Jan 2018

KSEZ 191455Z AUTO 04003KT 10SM CLR 06/M06 A3012 RMK AO2

KSEZ 191122Z 1912/2012 04008KT P6SM SCT250
  FM191900 18010G18KT P6SM BKN250
  FM200100 20010G15KT P6SM SCT060 BKN200
  FM201000 18012G22KT P6SM SCT035 BKN070